sensor_id;sensor_type;location;lat;lon;timestamp;P1;durP1;ratioP1;P2;durP2;ratioP2
52668;SDS011;59898;52.786;6.892;2023-09-18T00:01:21;23.77;;;21.17;;
52668;SDS011;59898;52.786;6.892;2023-09-18T00:04:42;23.58;;;21.13;;
52668;SDS011;59898;52.786;6.892;2023-09-18T00:08:03;23.50;;;21.08;;
52668;SDS011;59898;52.786;6.892;2023-09-18T00:11:23;26.55;;;20.63;;
52668;SDS011;59898;52.786;6.892;2023-09-18T00:14:47;23.70;;;21.23;;
52668;SDS011;59898;52.786;6.892;2023-09-18T00:18:09;23.83;;;21.30;;
52668;SDS011;59898;52.786;6.892;2023-09-18T00:21:30;24.25;;;20.85;;
52668;SDS011;59898;52.786;6.892;2023-09-18T00:24:50;22.65;;;20.40;;
52668;SDS011;59898;52.786;6.892;2023-09-18T00:28:11;22.02;;;19.73;;
52668;SDS011;59898;52.786;6.892;2023-09-18T00:31:31;24.58;;;21.33;;
52668;SDS011;59898;52.786;6.892;2023-09-18T00:34:52;24.50;;;22.05;;
52668;SDS011;59898;52.786;6.892;2023-09-18T00:38:12;25.20;;;22.60;;
52668;SDS011;59898;52.786;6.892;2023-09-18T00:41:33;23.45;;;20.95;;
52668;SDS011;59898;52.786;6.892;2023-09-18T00:44:54;25.15;;;22.55;;
52668;SDS011;59898;52.786;6.892;2023-09-18T00:48:15;24.48;;;21.20;;
52668;SDS011;59898;52.786;6.892;2023-09-18T00:51:36;25.60;;;23.05;;
52668;SDS011;59898;52.786;6.892;2023-09-18T00:54:57;24.55;;;22.08;;
52668;SDS011;59898;52.786;6.892;2023-09-18T00:58:17;25.17;;;22.67;;
52668;SDS011;59898;52.786;6.892;2023-09-18T01:01:39;22.95;;;20.45;;
52668;SDS011;59898;52.786;6.892;2023-09-18T01:05:00;22.33;;;19.92;;
52668;SDS011;59898;52.786;6.892;2023-09-18T01:08:21;24.63;;;21.98;;
52668;SDS011;59898;52.786;6.892;2023-09-18T01:11:43;25.58;;;22.85;;
52668;SDS011;59898;52.786;6.892;2023-09-18T01:18:37;24.33;;;21.85;;
52668;SDS011;59898;52.786;6.892;2023-09-18T01:21:57;24.50;;;22.10;;
52668;SDS011;59898;52.786;6.892;2023-09-18T01:25:18;21.90;;;19.80;;
52668;SDS011;59898;52.786;6.892;2023-09-18T01:28:39;22.15;;;19.88;;
52668;SDS011;59898;52.786;6.892;2023-09-18T01:31:59;23.15;;;20.75;;
52668;SDS011;59898;52.786;6.892;2023-09-18T01:35:20;23.92;;;21.33;;
52668;SDS011;59898;52.786;6.892;2023-09-18T01:38:43;23.02;;;20.27;;
52668;SDS011;59898;52.786;6.892;2023-09-18T01:42:05;22.02;;;19.85;;
52668;SDS011;59898;52.786;6.892;2023-09-18T01:45:26;21.53;;;19.27;;
52668;SDS011;59898;52.786;6.892;2023-09-18T01:48:47;20.88;;;18.67;;
52668;SDS011;59898;52.786;6.892;2023-09-18T01:52:08;21.98;;;19.75;;
52668;SDS011;59898;52.786;6.892;2023-09-18T01:55:29;21.17;;;18.67;;
52668;SDS011;59898;52.786;6.892;2023-09-18T01:58:50;21.75;;;18.35;;
52668;SDS011;59898;52.786;6.892;2023-09-18T02:02:10;21.38;;;18.58;;
52668;SDS011;59898;52.786;6.892;2023-09-18T02:05:32;20.92;;;18.60;;
52668;SDS011;59898;52.786;6.892;2023-09-18T02:08:52;22.30;;;18.67;;
52668;SDS011;59898;52.786;6.892;2023-09-18T02:12:15;29.52;;;19.05;;
52668;SDS011;59898;52.786;6.892;2023-09-18T02:15:37;20.02;;;17.88;;
52668;SDS011;59898;52.786;6.892;2023-09-18T02:18:58;17.52;;;15.70;;
52668;SDS011;59898;52.786;6.892;2023-09-18T02:22:19;20.60;;;18.50;;
52668;SDS011;59898;52.786;6.892;2023-09-18T02:25:40;20.63;;;17.38;;
52668;SDS011;59898;52.786;6.892;2023-09-18T02:29:02;19.02;;;17.00;;
52668;SDS011;59898;52.786;6.892;2023-09-18T02:32:24;18.05;;;16.25;;
52668;SDS011;59898;52.786;6.892;2023-09-18T02:35:45;18.75;;;16.48;;
52668;SDS011;59898;52.786;6.892;2023-09-18T02:39:05;19.13;;;15.52;;
52668;SDS011;59898;52.786;6.892;2023-09-18T02:42:26;16.63;;;14.88;;
52668;SDS011;59898;52.786;6.892;2023-09-18T02:45:47;19.50;;;15.07;;
52668;SDS011;59898;52.786;6.892;2023-09-18T02:49:07;23.13;;;16.17;;
52668;SDS011;59898;52.786;6.892;2023-09-18T02:52:28;17.48;;;15.70;;
52668;SDS011;59898;52.786;6.892;2023-09-18T02:55:53;15.98;;;14.38;;
52668;SDS011;59898;52.786;6.892;2023-09-18T02:59:14;18.48;;;15.05;;
52668;SDS011;59898;52.786;6.892;2023-09-18T03:02:35;17.25;;;14.88;;
52668;SDS011;59898;52.786;6.892;2023-09-18T03:06:00;16.73;;;14.20;;
52668;SDS011;59898;52.786;6.892;2023-09-18T03:09:22;15.98;;;14.27;;
52668;SDS011;59898;52.786;6.892;2023-09-18T03:12:42;16.27;;;14.55;;
52668;SDS011;59898;52.786;6.892;2023-09-18T03:16:03;18.50;;;13.63;;
52668;SDS011;59898;52.786;6.892;2023-09-18T03:19:24;17.25;;;12.25;;
52668;SDS011;59898;52.786;6.892;2023-09-18T03:22:44;16.30;;;12.30;;
52668;SDS011;59898;52.786;6.892;2023-09-18T03:26:05;14.63;;;13.02;;
52668;SDS011;59898;52.786;6.892;2023-09-18T03:29:25;14.82;;;13.15;;
52668;SDS011;59898;52.786;6.892;2023-09-18T03:32:47;12.98;;;11.32;;
52668;SDS011;59898;52.786;6.892;2023-09-18T03:36:10;14.27;;;12.73;;
52668;SDS011;59898;52.786;6.892;2023-09-18T03:39:31;15.32;;;12.10;;
52668;SDS011;59898;52.786;6.892;2023-09-18T03:42:52;12.38;;;10.68;;
52668;SDS011;59898;52.786;6.892;2023-09-18T03:46:12;13.52;;;11.15;;
52668;SDS011;59898;52.786;6.892;2023-09-18T03:49:33;15.05;;;11.98;;
52668;SDS011;59898;52.786;6.892;2023-09-18T03:52:53;12.85;;;11.40;;
52668;SDS011;59898;52.786;6.892;2023-09-18T03:56:14;11.93;;;9.93;;
52668;SDS011;59898;52.786;6.892;2023-09-18T03:59:35;14.90;;;11.70;;
52668;SDS011;59898;52.786;6.892;2023-09-18T04:02:56;15.32;;;11.88;;
52668;SDS011;59898;52.786;6.892;2023-09-18T04:06:16;16.27;;;11.65;;
52668;SDS011;59898;52.786;6.892;2023-09-18T04:09:40;15.82;;;11.70;;
52668;SDS011;59898;52.786;6.892;2023-09-18T04:13:01;13.82;;;11.38;;
52668;SDS011;59898;52.786;6.892;2023-09-18T04:16:21;14.43;;;11.52;;
52668;SDS011;59898;52.786;6.892;2023-09-18T04:19:42;13.07;;;10.60;;
52668;SDS011;59898;52.786;6.892;2023-09-18T04:26:43;13.10;;;10.77;;
52668;SDS011;59898;52.786;6.892;2023-09-18T04:30:04;12.98;;;10.38;;
52668;SDS011;59898;52.786;6.892;2023-09-18T04:33:25;15.07;;;11.05;;
52668;SDS011;59898;52.786;6.892;2023-09-18T04:36:46;13.45;;;10.45;;
52668;SDS011;59898;52.786;6.892;2023-09-18T04:40:07;12.18;;;10.30;;
52668;SDS011;59898;52.786;6.892;2023-09-18T04:43:31;14.70;;;10.52;;
52668;SDS011;59898;52.786;6.892;2023-09-18T04:46:52;13.45;;;10.40;;
52668;SDS011;59898;52.786;6.892;2023-09-18T04:50:12;13.63;;;10.43;;
52668;SDS011;59898;52.786;6.892;2023-09-18T04:53:33;12.40;;;10.38;;
52668;SDS011;59898;52.786;6.892;2023-09-18T04:56:53;12.88;;;10.27;;
52668;SDS011;59898;52.786;6.892;2023-09-18T05:00:14;13.85;;;10.48;;
52668;SDS011;59898;52.786;6.892;2023-09-18T05:03:35;12.75;;;10.98;;
52668;SDS011;59898;52.786;6.892;2023-09-18T05:06:56;13.70;;;11.40;;
52668;SDS011;59898;52.786;6.892;2023-09-18T05:10:17;16.35;;;11.63;;
52668;SDS011;59898;52.786;6.892;2023-09-18T05:13:37;12.75;;;10.15;;
52668;SDS011;59898;52.786;6.892;2023-09-18T05:16:58;12.52;;;10.18;;
52668;SDS011;59898;52.786;6.892;2023-09-18T05:20:19;16.05;;;11.48;;
52668;SDS011;59898;52.786;6.892;2023-09-18T05:23:39;12.63;;;11.00;;
52668;SDS011;59898;52.786;6.892;2023-09-18T05:27:00;14.13;;;10.57;;
52668;SDS011;59898;52.786;6.892;2023-09-18T05:30:21;15.68;;;10.32;;
52668;SDS011;59898;52.786;6.892;2023-09-18T05:33:52;17.67;;;10.40;;
52668;SDS011;59898;52.786;6.892;2023-09-18T05:37:13;12.00;;;9.55;;
52668;SDS011;59898;52.786;6.892;2023-09-18T05:40:34;15.18;;;9.40;;
52668;SDS011;59898;52.786;6.892;2023-09-18T05:43:55;12.90;;;10.05;;
52668;SDS011;59898;52.786;6.892;2023-09-18T05:47:16;12.70;;;9.57;;
52668;SDS011;59898;52.786;6.892;2023-09-18T05:50:37;12.90;;;10.20;;
52668;SDS011;59898;52.786;6.892;2023-09-18T05:53:58;14.10;;;10.13;;
52668;SDS011;59898;52.786;6.892;2023-09-18T05:57:19;11.50;;;9.55;;
52668;SDS011;59898;52.786;6.892;2023-09-18T06:00:39;14.88;;;10.57;;
52668;SDS011;59898;52.786;6.892;2023-09-18T06:04:00;15.93;;;9.52;;
52668;SDS011;59898;52.786;6.892;2023-09-18T06:07:26;12.27;;;8.98;;
52668;SDS011;59898;52.786;6.892;2023-09-18T06:10:47;15.07;;;9.88;;
52668;SDS011;59898;52.786;6.892;2023-09-18T06:14:08;11.88;;;9.27;;
52668;SDS011;59898;52.786;6.892;2023-09-18T06:17:30;16.03;;;9.57;;
52668;SDS011;59898;52.786;6.892;2023-09-18T06:20:50;14.02;;;10.02;;
52668;SDS011;59898;52.786;6.892;2023-09-18T06:24:11;11.00;;;9.40;;
52668;SDS011;59898;52.786;6.892;2023-09-18T06:27:35;11.27;;;8.82;;
52668;SDS011;59898;52.786;6.892;2023-09-18T06:30:56;14.75;;;9.02;;
52668;SDS011;59898;52.786;6.892;2023-09-18T06:34:17;13.70;;;9.27;;
52668;SDS011;59898;52.786;6.892;2023-09-18T06:37:37;10.77;;;8.75;;
52668;SDS011;59898;52.786;6.892;2023-09-18T06:40:58;12.13;;;8.70;;
52668;SDS011;59898;52.786;6.892;2023-09-18T06:44:18;14.05;;;8.73;;
52668;SDS011;59898;52.786;6.892;2023-09-18T06:47:39;11.77;;;8.30;;
52668;SDS011;59898;52.786;6.892;2023-09-18T06:51:00;15.00;;;8.70;;
52668;SDS011;59898;52.786;6.892;2023-09-18T06:54:21;16.25;;;9.55;;
52668;SDS011;59898;52.786;6.892;2023-09-18T06:57:42;12.73;;;9.55;;
52668;SDS011;59898;52.786;6.892;2023-09-18T07:01:03;11.45;;;8.45;;
52668;SDS011;59898;52.786;6.892;2023-09-18T07:04:26;16.38;;;9.68;;
52668;SDS011;59898;52.786;6.892;2023-09-18T07:07:47;15.90;;;10.18;;
52668;SDS011;59898;52.786;6.892;2023-09-18T07:11:07;18.23;;;11.95;;
52668;SDS011;59898;52.786;6.892;2023-09-18T07:14:28;19.77;;;12.27;;
52668;SDS011;59898;52.786;6.892;2023-09-18T07:17:49;17.15;;;11.30;;
52668;SDS011;59898;52.786;6.892;2023-09-18T07:21:10;13.90;;;9.80;;
52668;SDS011;59898;52.786;6.892;2023-09-18T07:24:30;12.80;;;9.75;;
52668;SDS011;59898;52.786;6.892;2023-09-18T07:27:51;16.23;;;10.98;;
52668;SDS011;59898;52.786;6.892;2023-09-18T07:31:11;13.48;;;10.70;;
52668;SDS011;59898;52.786;6.892;2023-09-18T07:34:32;14.65;;;11.27;;
52668;SDS011;59898;52.786;6.892;2023-09-18T07:37:53;15.98;;;11.75;;
52668;SDS011;59898;52.786;6.892;2023-09-18T07:41:14;16.23;;;13.40;;
52668;SDS011;59898;52.786;6.892;2023-09-18T07:44:35;24.15;;;13.80;;
52668;SDS011;59898;52.786;6.892;2023-09-18T07:47:56;17.80;;;14.10;;
52668;SDS011;59898;52.786;6.892;2023-09-18T07:51:16;18.40;;;12.60;;
52668;SDS011;59898;52.786;6.892;2023-09-18T07:54:37;14.30;;;12.80;;
52668;SDS011;59898;52.786;6.892;2023-09-18T07:57:57;17.58;;;12.75;;
52668;SDS011;59898;52.786;6.892;2023-09-18T08:01:19;16.98;;;13.63;;
52668;SDS011;59898;52.786;6.892;2023-09-18T08:04:42;15.27;;;12.90;;
52668;SDS011;59898;52.786;6.892;2023-09-18T08:08:02;21.10;;;13.60;;
52668;SDS011;59898;52.786;6.892;2023-09-18T08:11:25;16.85;;;12.88;;
52668;SDS011;59898;52.786;6.892;2023-09-18T08:14:46;17.27;;;12.77;;
52668;SDS011;59898;52.786;6.892;2023-09-18T08:18:06;14.38;;;11.40;;
52668;SDS011;59898;52.786;6.892;2023-09-18T08:21:27;15.07;;;12.65;;
52668;SDS011;59898;52.786;6.892;2023-09-18T08:24:51;17.60;;;12.45;;
52668;SDS011;59898;52.786;6.892;2023-09-18T08:28:13;19.52;;;12.95;;
52668;SDS011;59898;52.786;6.892;2023-09-18T08:31:35;15.48;;;12.80;;
52668;SDS011;59898;52.786;6.892;2023-09-18T08:34:55;21.50;;;14.35;;
52668;SDS011;59898;52.786;6.892;2023-09-18T08:38:16;17.35;;;13.93;;
52668;SDS011;59898;52.786;6.892;2023-09-18T08:41:41;17.75;;;14.82;;
52668;SDS011;59898;52.786;6.892;2023-09-18T08:45:03;21.33;;;14.35;;
52668;SDS011;59898;52.786;6.892;2023-09-18T08:48:28;19.17;;;14.40;;
52668;SDS011;59898;52.786;6.892;2023-09-18T08:51:55;21.95;;;16.30;;
52668;SDS011;59898;52.786;6.892;2023-09-18T08:55:17;19.57;;;13.93;;
52668;SDS011;59898;52.786;6.892;2023-09-18T08:58:39;23.38;;;14.93;;
52668;SDS011;59898;52.786;6.892;2023-09-18T09:02:02;20.92;;;12.70;;
52668;SDS011;59898;52.786;6.892;2023-09-18T09:05:23;16.52;;;13.18;;
52668;SDS011;59898;52.786;6.892;2023-09-18T09:08:44;17.08;;;12.23;;
52668;SDS011;59898;52.786;6.892;2023-09-18T09:12:04;21.27;;;12.05;;
52668;SDS011;59898;52.786;6.892;2023-09-18T09:15:29;20.08;;;12.07;;
52668;SDS011;59898;52.786;6.892;2023-09-18T09:18:52;15.30;;;11.73;;
52668;SDS011;59898;52.786;6.892;2023-09-18T09:22:19;12.10;;;10.07;;
52668;SDS011;59898;52.786;6.892;2023-09-18T09:25:40;13.63;;;10.52;;
52668;SDS011;59898;52.786;6.892;2023-09-18T09:29:14;13.07;;;9.23;;
52668;SDS011;59898;52.786;6.892;2023-09-18T09:32:38;15.32;;;10.25;;
52668;SDS011;59898;52.786;6.892;2023-09-18T09:36:00;13.85;;;9.75;;
52668;SDS011;59898;52.786;6.892;2023-09-18T09:39:24;11.05;;;8.95;;
52668;SDS011;59898;52.786;6.892;2023-09-18T09:42:46;13.57;;;9.57;;
52668;SDS011;59898;52.786;6.892;2023-09-18T09:46:07;10.27;;;8.82;;
52668;SDS011;59898;52.786;6.892;2023-09-18T09:49:47;10.43;;;7.55;;
52668;SDS011;59898;52.786;6.892;2023-09-18T09:53:08;10.43;;;8.50;;
52668;SDS011;59898;52.786;6.892;2023-09-18T09:56:48;10.25;;;7.07;;
52668;SDS011;59898;52.786;6.892;2023-09-18T10:00:10;8.35;;;7.13;;
52668;SDS011;59898;52.786;6.892;2023-09-18T10:03:45;9.30;;;6.78;;
52668;SDS011;59898;52.786;6.892;2023-09-18T10:07:07;12.32;;;6.80;;
52668;SDS011;59898;52.786;6.892;2023-09-18T10:10:30;9.18;;;6.07;;
52668;SDS011;59898;52.786;6.892;2023-09-18T10:13:59;8.80;;;6.18;;
52668;SDS011;59898;52.786;6.892;2023-09-18T10:17:24;8.93;;;6.85;;
52668;SDS011;59898;52.786;6.892;2023-09-18T10:20:47;5.85;;;5.25;;
52668;SDS011;59898;52.786;6.892;2023-09-18T10:24:17;7.15;;;6.38;;
52668;SDS011;59898;52.786;6.892;2023-09-18T10:27:47;9.60;;;5.60;;
52668;SDS011;59898;52.786;6.892;2023-09-18T10:31:18;6.47;;;4.95;;
52668;SDS011;59898;52.786;6.892;2023-09-18T10:34:40;5.97;;;5.00;;
52668;SDS011;59898;52.786;6.892;2023-09-18T10:38:03;10.18;;;5.72;;
52668;SDS011;59898;52.786;6.892;2023-09-18T10:41:26;10.18;;;5.25;;
52668;SDS011;59898;52.786;6.892;2023-09-18T10:44:47;7.63;;;5.03;;
52668;SDS011;59898;52.786;6.892;2023-09-18T10:48:08;5.97;;;4.88;;
52668;SDS011;59898;52.786;6.892;2023-09-18T10:51:29;5.95;;;4.93;;
52668;SDS011;59898;52.786;6.892;2023-09-18T10:54:53;9.43;;;4.50;;
52668;SDS011;59898;52.786;6.892;2023-09-18T10:58:14;5.65;;;4.20;;
52668;SDS011;59898;52.786;6.892;2023-09-18T11:01:45;7.75;;;4.55;;
52668;SDS011;59898;52.786;6.892;2023-09-18T11:05:07;6.03;;;3.70;;
52668;SDS011;59898;52.786;6.892;2023-09-18T11:08:29;6.90;;;3.40;;
52668;SDS011;59898;52.786;6.892;2023-09-18T11:15:32;5.63;;;3.92;;
52668;SDS011;59898;52.786;6.892;2023-09-18T11:18:54;7.97;;;3.80;;
52668;SDS011;59898;52.786;6.892;2023-09-18T11:22:25;8.35;;;3.85;;
52668;SDS011;59898;52.786;6.892;2023-09-18T11:25:45;5.15;;;3.60;;
52668;SDS011;59898;52.786;6.892;2023-09-18T11:29:08;5.65;;;3.60;;
52668;SDS011;59898;52.786;6.892;2023-09-18T11:32:39;4.53;;;3.70;;
52668;SDS011;59898;52.786;6.892;2023-09-18T11:36:04;5.05;;;2.75;;
52668;SDS011;59898;52.786;6.892;2023-09-18T11:46:46;5.13;;;3.40;;
52668;SDS011;59898;52.786;6.892;2023-09-18T11:50:11;6.63;;;3.40;;
52668;SDS011;59898;52.786;6.892;2023-09-18T11:53:33;4.93;;;3.28;;
52668;SDS011;59898;52.786;6.892;2023-09-18T11:56:56;3.80;;;3.35;;
52668;SDS011;59898;52.786;6.892;2023-09-18T12:00:18;4.95;;;3.05;;
52668;SDS011;59898;52.786;6.892;2023-09-18T12:03:42;5.13;;;3.05;;
52668;SDS011;59898;52.786;6.892;2023-09-18T12:07:03;5.38;;;3.42;;
52668;SDS011;59898;52.786;6.892;2023-09-18T12:10:24;4.40;;;2.50;;
52668;SDS011;59898;52.786;6.892;2023-09-18T12:13:46;5.67;;;3.10;;
52668;SDS011;59898;52.786;6.892;2023-09-18T12:17:14;4.03;;;2.78;;
52668;SDS011;59898;52.786;6.892;2023-09-18T12:20:35;3.15;;;2.50;;
52668;SDS011;59898;52.786;6.892;2023-09-18T12:23:57;5.53;;;3.10;;
52668;SDS011;59898;52.786;6.892;2023-09-18T12:27:17;5.22;;;3.00;;
52668;SDS011;59898;52.786;6.892;2023-09-18T12:30:38;4.63;;;2.90;;
52668;SDS011;59898;52.786;6.892;2023-09-18T12:33:59;6.30;;;2.95;;
52668;SDS011;59898;52.786;6.892;2023-09-18T12:37:20;4.00;;;2.58;;
52668;SDS011;59898;52.786;6.892;2023-09-18T12:40:40;4.65;;;2.92;;
52668;SDS011;59898;52.786;6.892;2023-09-18T12:44:01;4.55;;;3.28;;
52668;SDS011;59898;52.786;6.892;2023-09-18T12:47:23;9.25;;;3.35;;
52668;SDS011;59898;52.786;6.892;2023-09-18T12:50:46;7.63;;;4.13;;
52668;SDS011;59898;52.786;6.892;2023-09-18T12:54:14;8.05;;;3.40;;
52668;SDS011;59898;52.786;6.892;2023-09-18T12:57:36;4.25;;;3.33;;
52668;SDS011;59898;52.786;6.892;2023-09-18T13:01:03;6.57;;;3.97;;
52668;SDS011;59898;52.786;6.892;2023-09-18T13:04:27;8.13;;;3.90;;
52668;SDS011;59898;52.786;6.892;2023-09-18T13:07:48;8.30;;;4.20;;
52668;SDS011;59898;52.786;6.892;2023-09-18T13:11:10;4.80;;;3.40;;
52668;SDS011;59898;52.786;6.892;2023-09-18T13:18:24;7.95;;;3.72;;
52668;SDS011;59898;52.786;6.892;2023-09-18T13:21:48;7.65;;;3.90;;
52668;SDS011;59898;52.786;6.892;2023-09-18T13:25:09;5.13;;;4.25;;
52668;SDS011;59898;52.786;6.892;2023-09-18T13:28:33;6.63;;;3.80;;
52668;SDS011;59898;52.786;6.892;2023-09-18T13:31:55;7.57;;;4.22;;
52668;SDS011;59898;52.786;6.892;2023-09-18T13:35:17;5.05;;;4.28;;
52668;SDS011;59898;52.786;6.892;2023-09-18T13:38:38;11.00;;;5.32;;
52668;SDS011;59898;52.786;6.892;2023-09-18T13:41:59;9.27;;;4.40;;
52668;SDS011;59898;52.786;6.892;2023-09-18T13:45:19;7.47;;;5.15;;
52668;SDS011;59898;52.786;6.892;2023-09-18T13:48:40;8.23;;;4.68;;
52668;SDS011;59898;52.786;6.892;2023-09-18T13:52:00;6.28;;;4.07;;
52668;SDS011;59898;52.786;6.892;2023-09-18T13:55:21;8.20;;;3.85;;
52668;SDS011;59898;52.786;6.892;2023-09-18T13:58:41;5.78;;;4.20;;
52668;SDS011;59898;52.786;6.892;2023-09-18T14:02:02;5.55;;;3.88;;
52668;SDS011;59898;52.786;6.892;2023-09-18T14:05:25;12.15;;;3.80;;
52668;SDS011;59898;52.786;6.892;2023-09-18T14:08:47;8.38;;;4.18;;
52668;SDS011;59898;52.786;6.892;2023-09-18T14:12:07;5.63;;;3.30;;
52668;SDS011;59898;52.786;6.892;2023-09-18T14:15:28;6.90;;;4.20;;
52668;SDS011;59898;52.786;6.892;2023-09-18T14:18:49;7.00;;;3.95;;
52668;SDS011;59898;52.786;6.892;2023-09-18T14:22:10;4.10;;;3.38;;
52668;SDS011;59898;52.786;6.892;2023-09-18T14:25:30;6.53;;;3.60;;
52668;SDS011;59898;52.786;6.892;2023-09-18T14:28:51;4.55;;;3.75;;
52668;SDS011;59898;52.786;6.892;2023-09-18T14:32:11;5.10;;;3.95;;
52668;SDS011;59898;52.786;6.892;2023-09-18T14:35:32;5.65;;;4.60;;
52668;SDS011;59898;52.786;6.892;2023-09-18T14:38:52;6.60;;;4.78;;
52668;SDS011;59898;52.786;6.892;2023-09-18T14:45:36;6.13;;;3.72;;
52668;SDS011;59898;52.786;6.892;2023-09-18T14:48:58;5.55;;;3.88;;
52668;SDS011;59898;52.786;6.892;2023-09-18T14:52:18;5.65;;;3.92;;
52668;SDS011;59898;52.786;6.892;2023-09-18T14:55:43;6.63;;;3.78;;
52668;SDS011;59898;52.786;6.892;2023-09-18T14:59:03;5.47;;;3.78;;
52668;SDS011;59898;52.786;6.892;2023-09-18T15:02:27;6.15;;;4.10;;
52668;SDS011;59898;52.786;6.892;2023-09-18T15:05:51;5.85;;;3.90;;
52668;SDS011;59898;52.786;6.892;2023-09-18T15:09:13;5.67;;;4.27;;
52668;SDS011;59898;52.786;6.892;2023-09-18T15:12:33;5.25;;;3.95;;
52668;SDS011;59898;52.786;6.892;2023-09-18T15:15:54;4.85;;;4.10;;
52668;SDS011;59898;52.786;6.892;2023-09-18T15:19:15;5.95;;;3.90;;
52668;SDS011;59898;52.786;6.892;2023-09-18T15:22:37;5.80;;;3.60;;
52668;SDS011;59898;52.786;6.892;2023-09-18T15:25:57;6.60;;;3.88;;
52668;SDS011;59898;52.786;6.892;2023-09-18T15:29:18;7.93;;;3.67;;
52668;SDS011;59898;52.786;6.892;2023-09-18T15:32:46;6.03;;;4.10;;
52668;SDS011;59898;52.786;6.892;2023-09-18T15:36:08;5.50;;;3.78;;
52668;SDS011;59898;52.786;6.892;2023-09-18T15:39:29;5.47;;;3.67;;
52668;SDS011;59898;52.786;6.892;2023-09-18T15:42:50;5.80;;;3.70;;
52668;SDS011;59898;52.786;6.892;2023-09-18T15:46:13;7.18;;;4.93;;
52668;SDS011;59898;52.786;6.892;2023-09-18T15:49:34;5.78;;;4.00;;
52668;SDS011;59898;52.786;6.892;2023-09-18T15:52:54;8.93;;;4.32;;
52668;SDS011;59898;52.786;6.892;2023-09-18T15:56:17;11.15;;;4.45;;
52668;SDS011;59898;52.786;6.892;2023-09-18T15:59:40;5.57;;;3.47;;
52668;SDS011;59898;52.786;6.892;2023-09-18T16:03:02;4.70;;;3.00;;
52668;SDS011;59898;52.786;6.892;2023-09-18T16:06:23;5.93;;;3.55;;
52668;SDS011;59898;52.786;6.892;2023-09-18T16:09:45;5.63;;;3.75;;
52668;SDS011;59898;52.786;6.892;2023-09-18T16:13:08;4.25;;;3.10;;
52668;SDS011;59898;52.786;6.892;2023-09-18T16:16:29;5.25;;;3.25;;
52668;SDS011;59898;52.786;6.892;2023-09-18T16:19:49;5.47;;;3.33;;
52668;SDS011;59898;52.786;6.892;2023-09-18T16:23:11;5.50;;;3.63;;
52668;SDS011;59898;52.786;6.892;2023-09-18T16:26:34;11.13;;;3.70;;
52668;SDS011;59898;52.786;6.892;2023-09-18T16:29:55;4.13;;;3.17;;
52668;SDS011;59898;52.786;6.892;2023-09-18T16:33:16;5.85;;;3.35;;
52668;SDS011;59898;52.786;6.892;2023-09-18T16:36:36;7.05;;;3.72;;
52668;SDS011;59898;52.786;6.892;2023-09-18T16:39:57;8.40;;;3.72;;
52668;SDS011;59898;52.786;6.892;2023-09-18T16:43:17;9.07;;;3.90;;
52668;SDS011;59898;52.786;6.892;2023-09-18T16:46:41;5.43;;;2.90;;
52668;SDS011;59898;52.786;6.892;2023-09-18T16:50:04;6.50;;;3.25;;
52668;SDS011;59898;52.786;6.892;2023-09-18T16:53:25;5.60;;;3.42;;
52668;SDS011;59898;52.786;6.892;2023-09-18T16:56:46;7.97;;;3.53;;
52668;SDS011;59898;52.786;6.892;2023-09-18T17:00:07;4.65;;;3.67;;
52668;SDS011;59898;52.786;6.892;2023-09-18T17:03:29;7.47;;;4.13;;
52668;SDS011;59898;52.786;6.892;2023-09-18T17:06:50;7.63;;;3.05;;
52668;SDS011;59898;52.786;6.892;2023-09-18T17:10:10;8.90;;;3.80;;
52668;SDS011;59898;52.786;6.892;2023-09-18T17:13:31;6.25;;;3.97;;
52668;SDS011;59898;52.786;6.892;2023-09-18T17:16:52;6.03;;;3.50;;
52668;SDS011;59898;52.786;6.892;2023-09-18T17:20:12;6.82;;;3.28;;
52668;SDS011;59898;52.786;6.892;2023-09-18T17:23:33;6.07;;;2.90;;
52668;SDS011;59898;52.786;6.892;2023-09-18T17:26:55;3.88;;;2.20;;
52668;SDS011;59898;52.786;6.892;2023-09-18T17:30:15;4.72;;;2.90;;
52668;SDS011;59898;52.786;6.892;2023-09-18T17:33:36;5.60;;;2.20;;
52668;SDS011;59898;52.786;6.892;2023-09-18T17:37:00;3.72;;;2.50;;
52668;SDS011;59898;52.786;6.892;2023-09-18T17:40:21;4.03;;;2.53;;
52668;SDS011;59898;52.786;6.892;2023-09-18T17:43:41;6.20;;;2.33;;
52668;SDS011;59898;52.786;6.892;2023-09-18T17:47:03;3.40;;;2.35;;
52668;SDS011;59898;52.786;6.892;2023-09-18T17:50:27;3.80;;;2.13;;
52668;SDS011;59898;52.786;6.892;2023-09-18T17:53:47;6.15;;;2.15;;
52668;SDS011;59898;52.786;6.892;2023-09-18T17:57:08;3.20;;;2.60;;
52668;SDS011;59898;52.786;6.892;2023-09-18T18:00:28;2.92;;;1.92;;
52668;SDS011;59898;52.786;6.892;2023-09-18T18:03:49;3.28;;;2.28;;
52668;SDS011;59898;52.786;6.892;2023-09-18T18:07:11;4.28;;;2.30;;
52668;SDS011;59898;52.786;6.892;2023-09-18T18:10:31;4.63;;;2.40;;
52668;SDS011;59898;52.786;6.892;2023-09-18T18:13:52;3.47;;;2.10;;
52668;SDS011;59898;52.786;6.892;2023-09-18T18:17:12;3.28;;;1.98;;
52668;SDS011;59898;52.786;6.892;2023-09-18T18:20:33;3.35;;;2.15;;
52668;SDS011;59898;52.786;6.892;2023-09-18T18:23:55;2.42;;;2.13;;
52668;SDS011;59898;52.786;6.892;2023-09-18T18:27:17;3.20;;;2.90;;
52668;SDS011;59898;52.786;6.892;2023-09-18T18:30:38;7.78;;;2.28;;
52668;SDS011;59898;52.786;6.892;2023-09-18T18:33:59;3.70;;;2.20;;
52668;SDS011;59898;52.786;6.892;2023-09-18T18:37:20;2.72;;;1.90;;
52668;SDS011;59898;52.786;6.892;2023-09-18T18:40:41;3.30;;;2.38;;
52668;SDS011;59898;52.786;6.892;2023-09-18T18:44:04;3.80;;;2.40;;
52668;SDS011;59898;52.786;6.892;2023-09-18T18:47:25;3.65;;;2.50;;
52668;SDS011;59898;52.786;6.892;2023-09-18T18:50:45;3.92;;;2.90;;
52668;SDS011;59898;52.786;6.892;2023-09-18T18:54:06;4.47;;;2.30;;
52668;SDS011;59898;52.786;6.892;2023-09-18T18:57:30;3.92;;;2.78;;
52668;SDS011;59898;52.786;6.892;2023-09-18T19:00:50;5.57;;;2.72;;
52668;SDS011;59898;52.786;6.892;2023-09-18T19:04:16;3.30;;;2.42;;
52668;SDS011;59898;52.786;6.892;2023-09-18T19:07:37;3.67;;;2.20;;
52668;SDS011;59898;52.786;6.892;2023-09-18T19:10:58;7.00;;;2.65;;
52668;SDS011;59898;52.786;6.892;2023-09-18T19:14:25;5.30;;;3.30;;
52668;SDS011;59898;52.786;6.892;2023-09-18T19:21:11;5.43;;;3.00;;
52668;SDS011;59898;52.786;6.892;2023-09-18T19:24:32;6.13;;;2.80;;
52668;SDS011;59898;52.786;6.892;2023-09-18T19:27:52;5.30;;;2.85;;
52668;SDS011;59898;52.786;6.892;2023-09-18T19:31:17;6.20;;;3.20;;
52668;SDS011;59898;52.786;6.892;2023-09-18T19:34:39;3.00;;;2.40;;
52668;SDS011;59898;52.786;6.892;2023-09-18T19:37:59;3.55;;;2.95;;
52668;SDS011;59898;52.786;6.892;2023-09-18T19:41:20;5.00;;;2.70;;
52668;SDS011;59898;52.786;6.892;2023-09-18T19:48:03;4.25;;;2.70;;
52668;SDS011;59898;52.786;6.892;2023-09-18T19:51:24;4.07;;;2.72;;
52668;SDS011;59898;52.786;6.892;2023-09-18T19:54:45;5.45;;;2.85;;
52668;SDS011;59898;52.786;6.892;2023-09-18T19:58:05;3.17;;;2.45;;
52668;SDS011;59898;52.786;6.892;2023-09-18T20:01:26;5.18;;;2.85;;
52668;SDS011;59898;52.786;6.892;2023-09-18T20:04:49;4.03;;;3.00;;
52668;SDS011;59898;52.786;6.892;2023-09-18T20:08:10;5.10;;;3.28;;
52668;SDS011;59898;52.786;6.892;2023-09-18T20:11:31;6.68;;;3.22;;
52668;SDS011;59898;52.786;6.892;2023-09-18T20:14:53;6.85;;;2.92;;
52668;SDS011;59898;52.786;6.892;2023-09-18T20:18:13;6.30;;;3.13;;
52668;SDS011;59898;52.786;6.892;2023-09-18T20:21:35;5.90;;;2.78;;
52668;SDS011;59898;52.786;6.892;2023-09-18T20:24:55;4.63;;;3.13;;
52668;SDS011;59898;52.786;6.892;2023-09-18T20:28:16;5.43;;;2.97;;
52668;SDS011;59898;52.786;6.892;2023-09-18T20:31:37;4.32;;;2.97;;